Aviation Digital Data Service (ADDS)

Output produced by METARs form (0226 UTC 15 August 2020)
found at http://www.aviationweather.gov/metar/data/
 
METAR text: NGFU 150200Z 08006KT 9999 FEW018TCU SCT310 31/26 Q1007
Conditions at: NGFU (FUNAFUTI TUVALU , FJ) observed 0200 UTC 15 August 2020
Temperature: 31.0°C (88°F)
Dewpoint: 26.0°C (79°F) [RH = 75%]
Pressure (altimeter): 29.73 inches Hg (1007.0 mb)
Winds: from the E (80 degrees) at 7 MPH (6 knots; 3.1 m/s)
Visibility: 6 or more miles (10+ km)
Ceiling: at least 12,000 feet AGL
Clouds: few clouds at 1800 feet AGL
scattered clouds at 31000 feet AGL
Weather: no significant weather observed at this time

METAR text: NGFU 150100Z 08005KT 9999 FEW018TCU 32/26 Q1008
Conditions at: NGFU (FUNAFUTI TUVALU , FJ) observed 0100 UTC 15 August 2020
Temperature: 32.0°C (90°F)
Dewpoint: 26.0°C (79°F) [RH = 71%]
Pressure (altimeter): 29.76 inches Hg (1008.0 mb)
Winds: from the E (80 degrees) at 6 MPH (5 knots; 2.6 m/s)
Visibility: 6 or more miles (10+ km)
Ceiling: at least 12,000 feet AGL
Clouds: few clouds at 1800 feet AGL
Weather: no significant weather observed at this time

METAR text: NGFU 150000Z 05006KT 9999 FEW018TCU 32/26 Q1009
Conditions at: NGFU (FUNAFUTI TUVALU , FJ) observed 0000 UTC 15 August 2020
Temperature: 32.0°C (90°F)
Dewpoint: 26.0°C (79°F) [RH = 71%]
Pressure (altimeter): 29.79 inches Hg (1009.0 mb)
Winds: from the NE (50 degrees) at 7 MPH (6 knots; 3.1 m/s)
Visibility: 6 or more miles (10+ km)
Ceiling: at least 12,000 feet AGL
Clouds: few clouds at 1800 feet AGL
Weather: no significant weather observed at this time

METAR text: NGFU 142200Z 07006KT 9999 SCT018TCU 31/26 Q1010
Conditions at: NGFU (FUNAFUTI TUVALU , FJ) observed 2200 UTC 14 August 2020
Temperature: 31.0°C (88°F)
Dewpoint: 26.0°C (79°F) [RH = 75%]
Pressure (altimeter): 29.82 inches Hg (1010.0 mb)
Winds: from the ENE (70 degrees) at 7 MPH (6 knots; 3.1 m/s)
Visibility: 6 or more miles (10+ km)
Ceiling: at least 12,000 feet AGL
Clouds: scattered clouds at 1800 feet AGL
Weather: no significant weather observed at this time

METAR text: NGFU 142100Z 06005KT 9999 FEW018TCU SCT020 BKN310 30/25 Q1010
Conditions at: NGFU (FUNAFUTI TUVALU , FJ) observed 2100 UTC 14 August 2020
Temperature: 30.0°C (86°F)
Dewpoint: 25.0°C (77°F) [RH = 75%]
Pressure (altimeter): 29.82 inches Hg (1010.0 mb)
Winds: from the ENE (60 degrees) at 6 MPH (5 knots; 2.6 m/s)
Visibility: 6 or more miles (10+ km)
Ceiling: 31000 feet AGL
Clouds: few clouds at 1800 feet AGL
scattered clouds at 2000 feet AGL
broken clouds at 31000 feet AGL
Weather: no significant weather observed at this time

METAR text: NGFU 142000Z 06007KT 9999 FEW010 BKN310 30/25 Q1010
Conditions at: NGFU (FUNAFUTI TUVALU , FJ) observed 2000 UTC 14 August 2020
Temperature: 30.0°C (86°F)
Dewpoint: 25.0°C (77°F) [RH = 75%]
Pressure (altimeter): 29.82 inches Hg (1010.0 mb)
Winds: from the ENE (60 degrees) at 8 MPH (7 knots; 3.6 m/s)
Visibility: 6 or more miles (10+ km)
Ceiling: 31000 feet AGL
Clouds: few clouds at 1000 feet AGL
broken clouds at 31000 feet AGL
Weather: no significant weather observed at this time

METAR text: NGFU 141900Z VRB02KT 9999 FEW020 SCT310 28/25 Q1009
Conditions at: NGFU (FUNAFUTI TUVALU , FJ) observed 1900 UTC 14 August 2020
Temperature: 28.0°C (82°F)
Dewpoint: 25.0°C (77°F) [RH = 84%]
Pressure (altimeter): 29.79 inches Hg (1009.0 mb)
Winds: variable direction winds at 2 MPH (2 knots; 1.0 m/s)
Visibility: 6 or more miles (10+ km)
Ceiling: at least 12,000 feet AGL
Clouds: few clouds at 2000 feet AGL
scattered clouds at 31000 feet AGL
Weather: no significant weather observed at this time

METAR text: NGFU 141800Z 06004KT 9999 FEW020 SCT300 27/25 Q1009
Conditions at: NGFU (FUNAFUTI TUVALU , FJ) observed 1800 UTC 14 August 2020
Temperature: 27.0°C (81°F)
Dewpoint: 25.0°C (77°F) [RH = 89%]
Pressure (altimeter): 29.79 inches Hg (1009.0 mb)
Winds: from the ENE (60 degrees) at 5 MPH (4 knots; 2.1 m/s)
Visibility: 6 or more miles (10+ km)
Ceiling: at least 12,000 feet AGL
Clouds: few clouds at 2000 feet AGL
scattered clouds at 30000 feet AGL
Weather: no significant weather observed at this time

METAR text: NGFU 141700Z VRB02KT 9999 FEW020 27/25 Q1008
Conditions at: NGFU (FUNAFUTI TUVALU , FJ) observed 1700 UTC 14 August 2020
Temperature: 27.0°C (81°F)
Dewpoint: 25.0°C (77°F) [RH = 89%]
Pressure (altimeter): 29.76 inches Hg (1008.0 mb)
Winds: variable direction winds at 2 MPH (2 knots; 1.0 m/s)
Visibility: 6 or more miles (10+ km)
Ceiling: at least 12,000 feet AGL
Clouds: few clouds at 2000 feet AGL
Weather: no significant weather observed at this time

METAR text: NGFU 141600Z 06005KT 9999 FEW018TCU SCT110 BKN310 27/25 Q1008
Conditions at: NGFU (FUNAFUTI TUVALU , FJ) observed 1600 UTC 14 August 2020
Temperature: 27.0°C (81°F)
Dewpoint: 25.0°C (77°F) [RH = 89%]
Pressure (altimeter): 29.76 inches Hg (1008.0 mb)
Winds: from the ENE (60 degrees) at 6 MPH (5 knots; 2.6 m/s)
Visibility: 6 or more miles (10+ km)
Ceiling: 31000 feet AGL
Clouds: few clouds at 1800 feet AGL
scattered clouds at 11000 feet AGL
broken clouds at 31000 feet AGL
Weather: no significant weather observed at this time

METAR text: NGFU 141500Z 00000KT 9999 FEW020 27/25 Q1008
Conditions at: NGFU (FUNAFUTI TUVALU , FJ) observed 1500 UTC 14 August 2020
Temperature: 27.0°C (81°F)
Dewpoint: 25.0°C (77°F) [RH = 89%]
Pressure (altimeter): 29.76 inches Hg (1008.0 mb)
Winds: calm
Visibility: 6 or more miles (10+ km)
Ceiling: at least 12,000 feet AGL
Clouds: few clouds at 2000 feet AGL
Weather: no significant weather observed at this time

METAR text: NGFU 141400Z 07003KT 9999 FEW015CB SCT018TCU BKN110 28/24 Q1008
Conditions at: NGFU (FUNAFUTI TUVALU , FJ) observed 1400 UTC 14 August 2020
Temperature: 28.0°C (82°F)
Dewpoint: 24.0°C (75°F) [RH = 79%]
Pressure (altimeter): 29.76 inches Hg (1008.0 mb)
Winds: from the ENE (70 degrees) at 3 MPH (3 knots; 1.5 m/s)
Visibility: 6 or more miles (10+ km)
Ceiling: 11000 feet AGL
Clouds: few clouds at 1500 feet AGL
scattered clouds at 1800 feet AGL
broken clouds at 11000 feet AGL
Weather: no significant weather observed at this time

METAR text: NGFU 141300Z 07005KT 9999 FEW015CB FEW018TCU BKN110 27/25 Q1009
Conditions at: NGFU (FUNAFUTI TUVALU , FJ) observed 1300 UTC 14 August 2020
Temperature: 27.0°C (81°F)
Dewpoint: 25.0°C (77°F) [RH = 89%]
Pressure (altimeter): 29.79 inches Hg (1009.0 mb)
Winds: from the ENE (70 degrees) at 6 MPH (5 knots; 2.6 m/s)
Visibility: 6 or more miles (10+ km)
Ceiling: 11000 feet AGL
Clouds: few clouds at 1500 feet AGL
few clouds at 1800 feet AGL
broken clouds at 11000 feet AGL
Weather: no significant weather observed at this time

METAR text: NGFU 141200Z VRB02KT 9999 VCSH FEW015CB FEW017TCU BKN110 27/25 Q1010 RERA
Conditions at: NGFU (FUNAFUTI TUVALU , FJ) observed 1200 UTC 14 August 2020
Temperature: 27.0°C (81°F)
Dewpoint: 25.0°C (77°F) [RH = 89%]
Pressure (altimeter): 29.82 inches Hg (1010.0 mb)
Winds: variable direction winds at 2 MPH (2 knots; 1.0 m/s)
Visibility: 6 or more miles (10+ km)
Ceiling: 11000 feet AGL
Clouds: few clouds at 1500 feet AGL
few clouds at 1700 feet AGL
broken clouds at 11000 feet AGL
Weather: VCSH  (showers in vicinity)

METAR text: NGFU 141100Z VRB02KT 9999 VCSH SCT016CB FEW018TCU OVC100 27/25 Q1010 RERA
Conditions at: NGFU (FUNAFUTI TUVALU , FJ) observed 1100 UTC 14 August 2020
Temperature: 27.0°C (81°F)
Dewpoint: 25.0°C (77°F) [RH = 89%]
Pressure (altimeter): 29.82 inches Hg (1010.0 mb)
Winds: variable direction winds at 2 MPH (2 knots; 1.0 m/s)
Visibility: 6 or more miles (10+ km)
Ceiling: 10000 feet AGL
Clouds: scattered clouds at 1600 feet AGL
few clouds at 1800 feet AGL
overcast cloud deck at 10000 feet AGL
Weather: VCSH  (showers in vicinity)

METAR text: NGFU 141000Z 09005KT 9999 -SHRA SCT015CB SCT025 OVC100 27/25 Q1011 RERA
Conditions at: NGFU (FUNAFUTI TUVALU , FJ) observed 1000 UTC 14 August 2020
Temperature: 27.0°C (81°F)
Dewpoint: 25.0°C (77°F) [RH = 89%]
Pressure (altimeter): 29.85 inches Hg (1011.0 mb)
Winds: from the E (90 degrees) at 6 MPH (5 knots; 2.6 m/s)
Visibility: 6 or more miles (10+ km)
Ceiling: 10000 feet AGL
Clouds: scattered clouds at 1500 feet AGL
scattered clouds at 2500 feet AGL
overcast cloud deck at 10000 feet AGL
Weather: -SHRA  (light rain showers)

METAR text: NGFU 140900Z VRB01KT 9999 -SHRA SCT015CB FEW017TCU OVC100 27/25 Q1010 RERA
Conditions at: NGFU (FUNAFUTI TUVALU , FJ) observed 0900 UTC 14 August 2020
Temperature: 27.0°C (81°F)
Dewpoint: 25.0°C (77°F) [RH = 89%]
Pressure (altimeter): 29.82 inches Hg (1010.0 mb)
Winds: variable direction winds at 1 MPH (1 knots; 0.5 m/s)
Visibility: 6 or more miles (10+ km)
Ceiling: 10000 feet AGL
Clouds: scattered clouds at 1500 feet AGL
few clouds at 1700 feet AGL
overcast cloud deck at 10000 feet AGL
Weather: -SHRA  (light rain showers)

METAR text: NGFU 140800Z 07005KT 9999 -SHRA SCT015CB FEW017TCU BKN110 27/25 Q1010
Conditions at: NGFU (FUNAFUTI TUVALU , FJ) observed 0800 UTC 14 August 2020
Temperature: 27.0°C (81°F)
Dewpoint: 25.0°C (77°F) [RH = 89%]
Pressure (altimeter): 29.82 inches Hg (1010.0 mb)
Winds: from the ENE (70 degrees) at 6 MPH (5 knots; 2.6 m/s)
Visibility: 6 or more miles (10+ km)
Ceiling: 11000 feet AGL
Clouds: scattered clouds at 1500 feet AGL
few clouds at 1700 feet AGL
broken clouds at 11000 feet AGL
Weather: -SHRA  (light rain showers)

METAR text: NGFU 140700Z VRB02KT 9999 VCSH FEW016CB FEW018TCU BKN110 28/25 Q1010
Conditions at: NGFU (FUNAFUTI TUVALU , FJ) observed 0700 UTC 14 August 2020
Temperature: 28.0°C (82°F)
Dewpoint: 25.0°C (77°F) [RH = 84%]
Pressure (altimeter): 29.82 inches Hg (1010.0 mb)
Winds: variable direction winds at 2 MPH (2 knots; 1.0 m/s)
Visibility: 6 or more miles (10+ km)
Ceiling: 11000 feet AGL
Clouds: few clouds at 1600 feet AGL
few clouds at 1800 feet AGL
broken clouds at 11000 feet AGL
Weather: VCSH  (showers in vicinity)

METAR text: NGFU 140600Z VRB02KT 9999 4900N SHRA FEW015CB FEW017TCU BKN110 29/25 Q1009 RMK CB TO N
Conditions at: NGFU (FUNAFUTI TUVALU , FJ) observed 0600 UTC 14 August 2020
Temperature: 29.0°C (84°F)
Dewpoint: 25.0°C (77°F) [RH = 79%]
Pressure (altimeter): 29.79 inches Hg (1009.0 mb)
Winds: variable direction winds at 2 MPH (2 knots; 1.0 m/s)
Visibility: 6 or more miles (10+ km)
Ceiling: 11000 feet AGL
Clouds: few clouds at 1500 feet AGL
few clouds at 1700 feet AGL
broken clouds at 11000 feet AGL
Weather: SHRA  (rain showers)

METAR text: NGFU 140500Z VRB02KT 9999 4900NE SHRA FEW015CB FEW017TCU BKN110 30/25 Q1008 RMK CB TO NE
Conditions at: NGFU (FUNAFUTI TUVALU , FJ) observed 0500 UTC 14 August 2020
Temperature: 30.0°C (86°F)
Dewpoint: 25.0°C (77°F) [RH = 75%]
Pressure (altimeter): 29.76 inches Hg (1008.0 mb)
Winds: variable direction winds at 2 MPH (2 knots; 1.0 m/s)
Visibility: 6 or more miles (10+ km)
Ceiling: 11000 feet AGL
Clouds: few clouds at 1500 feet AGL
few clouds at 1700 feet AGL
broken clouds at 11000 feet AGL
Weather: SHRA  (rain showers)

METAR text: NGFU 140400Z 00000KT 9999 SCT018TCU 31/25 Q1008
Conditions at: NGFU (FUNAFUTI TUVALU , FJ) observed 0400 UTC 14 August 2020
Temperature: 31.0°C (88°F)
Dewpoint: 25.0°C (77°F) [RH = 71%]
Pressure (altimeter): 29.76 inches Hg (1008.0 mb)
Winds: calm
Visibility: 6 or more miles (10+ km)
Ceiling: at least 12,000 feet AGL
Clouds: scattered clouds at 1800 feet AGL
Weather: no significant weather observed at this time

METAR text: NGFU 140300Z VRB02KT 9999 FEW018TCU SCT020 31/24 Q1007
Conditions at: NGFU (FUNAFUTI TUVALU , FJ) observed 0300 UTC 14 August 2020
Temperature: 31.0°C (88°F)
Dewpoint: 24.0°C (75°F) [RH = 66%]
Pressure (altimeter): 29.73 inches Hg (1007.0 mb)
Winds: variable direction winds at 2 MPH (2 knots; 1.0 m/s)
Visibility: 6 or more miles (10+ km)
Ceiling: at least 12,000 feet AGL
Clouds: few clouds at 1800 feet AGL
scattered clouds at 2000 feet AGL
Weather: no significant weather observed at this time

METAR text: NGFU 140200Z 00000KT 9999 FEW018TCU SCT310 30/23 Q1008
Conditions at: NGFU (FUNAFUTI TUVALU , FJ) observed 0200 UTC 14 August 2020
Temperature: 30.0°C (86°F)
Dewpoint: 23.0°C (73°F) [RH = 66%]
Pressure (altimeter): 29.76 inches Hg (1008.0 mb)
Winds: calm
Visibility: 6 or more miles (10+ km)
Ceiling: at least 12,000 feet AGL
Clouds: few clouds at 1800 feet AGL
scattered clouds at 31000 feet AGL
Weather: no significant weather observed at this time

METAR text: NGFU 140100Z 00000KT 9999 SCT018TCU 30/24 Q1008
Conditions at: NGFU (FUNAFUTI TUVALU , FJ) observed 0100 UTC 14 August 2020
Temperature: 30.0°C (86°F)
Dewpoint: 24.0°C (75°F) [RH = 70%]
Pressure (altimeter): 29.76 inches Hg (1008.0 mb)
Winds: calm
Visibility: 6 or more miles (10+ km)
Ceiling: at least 12,000 feet AGL
Clouds: scattered clouds at 1800 feet AGL
Weather: no significant weather observed at this time

METAR text: NGFU 140000Z 00000KT 9999 FEW018TCU SCT310 29/24 Q1009
Conditions at: NGFU (FUNAFUTI TUVALU , FJ) observed 0000 UTC 14 August 2020
Temperature: 29.0°C (84°F)
Dewpoint: 24.0°C (75°F) [RH = 74%]
Pressure (altimeter): 29.79 inches Hg (1009.0 mb)
Winds: calm
Visibility: 6 or more miles (10+ km)
Ceiling: at least 12,000 feet AGL
Clouds: few clouds at 1800 feet AGL
scattered clouds at 31000 feet AGL
Weather: no significant weather observed at this time

METAR text: NGFU 132300Z 00000KT 9999 FEW018TCU BKN300 30/24 Q1010
Conditions at: NGFU (FUNAFUTI TUVALU , FJ) observed 2300 UTC 13 August 2020
Temperature: 30.0°C (86°F)
Dewpoint: 24.0°C (75°F) [RH = 70%]
Pressure (altimeter): 29.82 inches Hg (1010.0 mb)
Winds: calm
Visibility: 6 or more miles (10+ km)
Ceiling: 30000 feet AGL
Clouds: few clouds at 1800 feet AGL
broken clouds at 30000 feet AGL
Weather: no significant weather observed at this time

METAR text: NGFU 132200Z VRB01KT 9999 FEW019TCU SCT045 BKN300 30/24 Q1011
Conditions at: NGFU (FUNAFUTI TUVALU , FJ) observed 2200 UTC 13 August 2020
Temperature: 30.0°C (86°F)
Dewpoint: 24.0°C (75°F) [RH = 70%]
Pressure (altimeter): 29.85 inches Hg (1011.0 mb)
Winds: variable direction winds at 1 MPH (1 knots; 0.5 m/s)
Visibility: 6 or more miles (10+ km)
Ceiling: 30000 feet AGL
Clouds: few clouds at 1900 feet AGL
scattered clouds at 4500 feet AGL
broken clouds at 30000 feet AGL
Weather: no significant weather observed at this time

METAR text: NGFU 132100Z VRB01KT 9999 FEW019TCU BKN300 29/24 Q1011
Conditions at: NGFU (FUNAFUTI TUVALU , FJ) observed 2100 UTC 13 August 2020
Temperature: 29.0°C (84°F)
Dewpoint: 24.0°C (75°F) [RH = 74%]
Pressure (altimeter): 29.85 inches Hg (1011.0 mb)
Winds: variable direction winds at 1 MPH (1 knots; 0.5 m/s)
Visibility: 6 or more miles (10+ km)
Ceiling: 30000 feet AGL
Clouds: few clouds at 1900 feet AGL
broken clouds at 30000 feet AGL
Weather: no significant weather observed at this time

METAR text: NGFU 132000Z VRB02KT 9999 FEW018TCU BKN300 29/25 Q1010
Conditions at: NGFU (FUNAFUTI TUVALU , FJ) observed 2000 UTC 13 August 2020
Temperature: 29.0°C (84°F)
Dewpoint: 25.0°C (77°F) [RH = 79%]
Pressure (altimeter): 29.82 inches Hg (1010.0 mb)
Winds: variable direction winds at 2 MPH (2 knots; 1.0 m/s)
Visibility: 6 or more miles (10+ km)
Ceiling: 30000 feet AGL
Clouds: few clouds at 1800 feet AGL
broken clouds at 30000 feet AGL
Weather: no significant weather observed at this time

METAR text: NGFU 131900Z VRB02KT 9999 FEW018TCU SCT110 BKN300 27/25 Q1010
Conditions at: NGFU (FUNAFUTI TUVALU , FJ) observed 1900 UTC 13 August 2020
Temperature: 27.0°C (81°F)
Dewpoint: 25.0°C (77°F) [RH = 89%]
Pressure (altimeter): 29.82 inches Hg (1010.0 mb)
Winds: variable direction winds at 2 MPH (2 knots; 1.0 m/s)
Visibility: 6 or more miles (10+ km)
Ceiling: 30000 feet AGL
Clouds: few clouds at 1800 feet AGL
scattered clouds at 11000 feet AGL
broken clouds at 30000 feet AGL
Weather: no significant weather observed at this time

METAR text: NGFU 131800Z VRB02KT 9999 FEW018TCU SCT110 BKN300 27/25 Q1009
Conditions at: NGFU (FUNAFUTI TUVALU , FJ) observed 1800 UTC 13 August 2020
Temperature: 27.0°C (81°F)
Dewpoint: 25.0°C (77°F) [RH = 89%]
Pressure (altimeter): 29.79 inches Hg (1009.0 mb)
Winds: variable direction winds at 2 MPH (2 knots; 1.0 m/s)
Visibility: 6 or more miles (10+ km)
Ceiling: 30000 feet AGL
Clouds: few clouds at 1800 feet AGL
scattered clouds at 11000 feet AGL
broken clouds at 30000 feet AGL
Weather: no significant weather observed at this time

METAR text: NGFU 131700Z 07003KT 9999 FEW018TCU BKN300 27/24 Q1009
Conditions at: NGFU (FUNAFUTI TUVALU , FJ) observed 1700 UTC 13 August 2020
Temperature: 27.0°C (81°F)
Dewpoint: 24.0°C (75°F) [RH = 84%]
Pressure (altimeter): 29.79 inches Hg (1009.0 mb)
Winds: from the ENE (70 degrees) at 3 MPH (3 knots; 1.5 m/s)
Visibility: 6 or more miles (10+ km)
Ceiling: 30000 feet AGL
Clouds: few clouds at 1800 feet AGL
broken clouds at 30000 feet AGL
Weather: no significant weather observed at this time

METAR text: NGFU 131600Z 06004KT 9999 FEW018TCU BKN300 27/25 Q1008
Conditions at: NGFU (FUNAFUTI TUVALU , FJ) observed 1600 UTC 13 August 2020
Temperature: 27.0°C (81°F)
Dewpoint: 25.0°C (77°F) [RH = 89%]
Pressure (altimeter): 29.76 inches Hg (1008.0 mb)
Winds: from the ENE (60 degrees) at 5 MPH (4 knots; 2.1 m/s)
Visibility: 6 or more miles (10+ km)
Ceiling: 30000 feet AGL
Clouds: few clouds at 1800 feet AGL
broken clouds at 30000 feet AGL
Weather: no significant weather observed at this time

METAR text: NGFU 131500Z 00000KT 9999 FEW018TCU SCT110 BKN300 27/25 Q1008
Conditions at: NGFU (FUNAFUTI TUVALU , FJ) observed 1500 UTC 13 August 2020
Temperature: 27.0°C (81°F)
Dewpoint: 25.0°C (77°F) [RH = 89%]
Pressure (altimeter): 29.76 inches Hg (1008.0 mb)
Winds: calm
Visibility: 6 or more miles (10+ km)
Ceiling: 30000 feet AGL
Clouds: few clouds at 1800 feet AGL
scattered clouds at 11000 feet AGL
broken clouds at 30000 feet AGL
Weather: no significant weather observed at this time

Forecast for: AMD
Text: TAF AMD NGFU 150130Z 1501/1524 06007KT 9999 SCT018
Forecast period: 0100 UTC 15 August 2020 to 0000 UTC 16 August 2020
Forecast type: FROM: standard forecast or significant change
Winds: from the ENE (60 degrees) at 8 MPH (7 knots; 3.6 m/s)
Visibility: 6 or more miles (10+ km)
Ceiling: at least 12,000 feet AGL
Clouds: scattered clouds at 1800 feet AGL
Weather: no significant weather forecast for this period
Text: PROB40
Forecast period: 0100 to 0900 UTC 15 August 2020
Forecast type: TEMPORARY: The following changes expected for less than half the time period
Visibility: 3 miles (5 km)
Ceiling: 1500 feet AGL
Clouds: broken clouds at 1500 feet AGL
few clouds at 1800 feet AGL
Weather: TSRA  (rain associated with thunderstorm(s))
Text: TEMPO 1501/1509 5000 TSRA BKN015 FEW018CB
Forecast period: 1800 UTC 15 August 2020 to 0000 UTC 16 August 2020
Forecast type: TEMPORARY: The following changes expected for less than half the time period
Visibility: 3 miles (5 km)
Ceiling: 1500 feet AGL
Clouds: broken clouds at 1500 feet AGL
few clouds at 1800 feet AGL
Weather: TSRA  (rain associated with thunderstorm(s))